Time;durP1;ratioP1;P1;durP2;ratioP2;P2;SDS_P1;SDS_P2;PMS_P1;PMS_P2;Temp;Humidity;BMP_temperature;BMP_pressure;BME280_temperature;BME280_humidity;BME280_pressure;Samples;Min_cycle;Max_cycle;Signal;HPM_P1;HPM_P2
2022/09/28 00:01:16;;;;;;;9.02;3.80;;;;;;;10.78;64.96;99599.78;5158009;28;20079;-47
2022/09/28 00:03:53;;;;;;;6.60;3.60;;;;;;;10.73;64.95;99597.69;5158558;28;20053;-48
2022/09/28 00:06:28;;;;;;;15.43;3.50;;;;;;;10.55;65.08;99579.53;5161233;28;20384;-48
2022/09/28 00:09:01;;;;;;;6.35;3.90;;;;;;;10.66;65.07;99590.69;5158944;28;20501;-48
2022/09/28 00:11:33;;;;;;;15.27;4.07;;;;;;;10.63;64.87;99594.50;5159775;28;20048;-48
2022/09/28 00:14:07;;;;;;;7.97;3.28;;;;;;;10.59;64.98;99599.31;5155107;28;20060;-56
2022/09/28 00:16:43;;;;;;;17.40;4.35;;;;;;;10.57;65.03;99598.69;5158541;28;20405;-47
2022/09/28 00:19:16;;;;;;;5.88;3.75;;;;;;;10.53;65.02;99592.13;5160522;28;20344;-47
2022/09/28 00:21:48;;;;;;;8.45;4.43;;;;;;;10.58;65.19;99597.66;5158301;28;20445;-48
2022/09/28 00:24:21;;;;;;;15.27;4.30;;;;;;;10.59;65.19;99601.97;5158614;28;20060;-47
2022/09/28 00:26:55;;;;;;;15.48;5.45;;;;;;;10.63;65.00;99606.88;5133027;28;20479;-48
2022/09/28 00:29:31;;;;;;;19.63;5.72;;;;;;;10.66;65.03;99601.25;5163646;28;20378;-47
2022/09/28 00:32:06;;;;;;;10.07;5.70;;;;;;;10.67;65.00;99608.16;5159197;28;20068;-48
2022/09/28 00:34:42;;;;;;;19.70;7.15;;;;;;;10.68;65.01;99610.59;5155331;28;20045;-47
2022/09/28 00:37:14;;;;;;;15.75;5.63;;;;;;;10.64;65.02;99598.78;5157970;28;20824;-48
2022/09/28 00:39:49;;;;;;;13.35;6.47;;;;;;;10.72;65.11;99608.44;5159486;28;20099;-47
2022/09/28 00:42:24;;;;;;;13.80;6.82;;;;;;;10.73;65.08;99600.31;5157462;28;20087;-50
2022/09/28 00:44:59;;;;;;;13.07;6.35;;;;;;;10.76;65.17;99609.72;5157957;28;20120;-48
2022/09/28 00:47:48;;;;;;;11.55;6.22;;;;;;;10.75;65.19;99598.34;5163400;28;20049;-52
2022/09/28 00:50:26;;;;;;;12.10;7.03;;;;;;;10.75;65.10;99590.41;5159463;28;20045;-47
2022/09/28 00:53:04;;;;;;;8.15;5.03;;;;;;;10.77;65.15;99591.03;5158491;28;20490;-47
2022/09/28 00:55:41;;;;;;;9.05;4.25;;;;;;;10.79;64.92;99591.69;5160122;28;20042;-49
2022/09/28 00:58:19;;;;;;;7.57;4.45;;;;;;;10.81;64.96;99584.41;5158166;28;20049;-46
2022/09/28 01:00:54;;;;;;;13.98;6.18;;;;;;;10.82;65.17;99577.28;5164958;28;20089;-48
2022/09/28 01:03:28;;;;;;;11.70;4.13;;;;;;;10.82;65.04;99579.94;5156913;28;20085;-46
2022/09/28 01:06:03;;;;;;;8.13;4.70;;;;;;;10.83;65.04;99581.56;5155478;28;20447;-43
2022/09/28 01:08:37;;;;;;;6.00;4.13;;;;;;;10.80;65.08;99571.38;5157433;28;20388;-47
2022/09/28 01:11:09;;;;;;;5.72;3.63;;;;;;;10.81;65.07;99579.13;5156699;28;20041;-42
2022/09/28 01:13:42;;;;;;;9.18;4.43;;;;;;;10.80;64.79;99581.94;5157358;28;20430;-46
2022/09/28 01:16:26;;;;;;;5.57;3.90;;;;;;;10.78;64.88;99576.03;5157107;28;20041;-42
2022/09/28 01:19:12;;;;;;;7.38;3.72;;;;;;;10.73;65.00;99578.38;5157546;28;20576;-48
2022/09/28 01:21:52;;;;;;;5.43;3.45;;;;;;;10.67;65.03;99576.47;5160529;28;20072;-50
2022/09/28 01:24:42;;;;;;;5.95;3.47;;;;;;;10.55;65.16;99561.06;5156649;28;20501;-49
2022/09/28 01:27:20;;;;;;;4.85;3.72;;;;;;;10.57;65.09;99572.28;5164778;28;20459;-48
2022/09/28 01:30:02;;;;;;;7.05;3.80;;;;;;;10.51;65.01;99578.28;5156896;28;20348;-49
2022/09/28 01:32:43;;;;;;;11.57;3.20;;;;;;;10.15;65.21;99541.94;5155806;28;20124;-50
2022/09/28 01:35:21;;;;;;;6.45;3.40;;;;;;;10.44;65.04;99576.53;5159395;28;20041;-48
2022/09/28 01:37:59;;;;;;;5.03;2.70;;;;;;;10.41;65.09;99583.00;5152891;28;20079;-47
2022/09/28 01:40:33;;;;;;;3.33;2.85;;;;;;;10.37;65.17;99586.97;5152561;28;20048;-49
2022/09/28 01:43:10;;;;;;;4.93;3.03;;;;;;;10.34;64.95;99587.34;5152459;28;20049;-50
2022/09/28 01:45:47;;;;;;;7.55;4.00;;;;;;;10.31;65.03;99582.41;5166133;28;20627;-48
2022/09/28 01:48:26;;;;;;;6.88;3.60;;;;;;;10.27;65.20;99584.59;5155134;28;20052;-47
2022/09/28 01:51:03;;;;;;;8.02;3.85;;;;;;;10.24;65.22;99586.75;5157789;28;20041;-49
2022/09/28 01:53:40;;;;;;;6.93;3.65;;;;;;;10.21;65.19;99580.00;5154741;28;20979;-47
2022/09/28 01:56:18;;;;;;;6.95;4.35;;;;;;;10.19;65.31;99583.81;5155966;28;20377;-50
2022/09/28 01:58:57;;;;;;;6.68;3.78;;;;;;;10.13;65.24;99580.91;5154213;28;20374;-46
2022/09/28 02:01:39;;;;;;;11.70;4.00;;;;;;;10.00;65.06;99567.47;5155787;28;20121;-49
2022/09/28 02:04:14;;;;;;;8.43;4.20;;;;;;;10.01;65.17;99570.94;5155672;28;20462;-49
2022/09/28 02:06:52;;;;;;;10.75;4.32;;;;;;;10.07;65.25;99580.78;5153949;28;20061;-46
2022/09/28 02:09:28;;;;;;;14.27;4.30;;;;;;;10.05;65.30;99580.13;5156593;28;20425;-51
2022/09/28 02:12:07;;;;;;;6.43;4.10;;;;;;;10.03;65.23;99574.22;5164138;28;20037;-50
2022/09/28 02:14:43;;;;;;;8.73;4.22;;;;;;;9.99;65.15;99579.03;5155859;28;20132;-49
2022/09/28 02:17:16;;;;;;;5.75;3.85;;;;;;;9.95;65.29;99572.47;5160976;28;20043;-42
2022/09/28 02:19:48;;;;;;;13.32;5.40;;;;;;;9.91;65.50;99581.75;5155670;28;20057;-49
2022/09/28 02:22:28;;;;;;;12.02;4.85;;;;;;;9.88;65.15;99576.81;5158185;28;20085;-48
2022/09/28 02:25:08;;;;;;;14.85;5.07;;;;;;;9.84;65.20;99578.97;5156686;28;20041;-50
2022/09/28 02:27:51;;;;;;;8.57;4.45;;;;;;;9.82;65.19;99580.16;5156339;28;20431;-51
2022/09/28 02:30:25;;;;;;;13.73;5.20;;;;;;;9.78;65.39;99590.22;5155576;28;20060;-49
2022/09/28 02:33:03;;;;;;;9.45;5.82;;;;;;;9.74;65.28;99581.03;5156492;28;20042;-47
2022/09/28 02:35:37;;;;;;;12.70;5.63;;;;;;;9.73;65.21;99586.47;5154106;28;20363;-48
2022/09/28 02:38:12;;;;;;;15.63;5.88;;;;;;;9.72;65.49;99582.19;5160011;28;20480;-49
2022/09/28 02:40:52;;;;;;;27.95;7.18;;;;;;;9.72;65.51;99582.19;5156355;28;20394;-46
2022/09/28 02:43:34;;;;;;;14.32;6.18;;;;;;;9.68;65.35;99587.81;5155251;28;20037;-47
2022/09/28 02:46:20;;;;;;;10.50;5.28;;;;;;;9.66;65.46;99592.44;5157348;28;20329;-50
2022/09/28 02:49:07;;;;;;;8.52;6.13;;;;;;;9.64;65.45;99589.16;5164710;28;20049;-47
2022/09/28 02:51:50;;;;;;;10.82;6.13;;;;;;;9.63;65.46;99600.72;5159559;28;20446;-47
2022/09/28 02:54:38;;;;;;;9.53;5.17;;;;;;;9.60;65.48;99594.94;5158581;28;20592;-47
2022/09/28 02:57:29;;;;;;;9.70;6.22;;;;;;;9.58;65.54;99591.69;5156933;28;20059;-54
2022/09/28 03:00:09;;;;;;;8.18;6.10;;;;;;;9.55;65.34;99584.13;5159865;28;20045;-51
2022/09/28 03:02:59;;;;;;;12.93;5.75;;;;;;;9.54;65.39;99585.94;5161481;28;20118;-50
2022/09/28 03:05:38;;;;;;;10.05;5.47;;;;;;;9.52;65.46;99593.19;5161249;28;20168;-46
2022/09/28 03:08:19;;;;;;;10.27;6.63;;;;;;;9.50;65.45;99592.53;5156436;28;20072;-49
2022/09/28 03:10:57;;;;;;;14.18;6.00;;;;;;;9.48;65.55;99597.16;5161606;28;20041;-49
2022/09/28 03:13:31;;;;;;;10.35;6.10;;;;;;;9.47;65.52;99595.50;5159401;28;20374;-49
2022/09/28 03:16:10;;;;;;;8.77;5.40;;;;;;;9.44;65.42;99595.84;5164568;28;20394;-48
2022/09/28 03:18:44;;;;;;;6.60;4.72;;;;;;;9.42;65.51;99603.94;5164926;28;20462;-50
2022/09/28 03:21:16;;;;;;;9.73;5.88;;;;;;;9.43;65.70;99599.50;5157893;28;20049;-47
2022/09/28 03:23:49;;;;;;;13.10;5.47;;;;;;;9.42;65.61;99592.59;5160756;28;20273;-48
2022/09/28 03:26:21;;;;;;;9.02;4.57;;;;;;;9.43;65.64;99596.84;5158252;28;20441;-46
2022/09/28 03:28:53;;;;;;;10.75;5.43;;;;;;;9.42;65.70;99600.50;5163356;28;20128;-47
2022/09/28 03:31:26;;;;;;;10.27;5.57;;;;;;;9.35;65.66;99583.72;5158549;28;20470;-49
2022/09/28 03:33:59;;;;;;;7.53;5.97;;;;;;;9.42;65.66;99593.41;5160066;28;20045;-46
2022/09/28 03:36:32;;;;;;;10.65;6.07;;;;;;;9.43;65.70;99595.03;5160394;28;20506;-43
2022/09/28 03:39:04;;;;;;;7.65;5.88;;;;;;;9.45;65.77;99595.69;5164504;28;20497;-47
2022/09/28 03:41:37;;;;;;;16.17;6.88;;;;;;;9.47;65.56;99595.50;5153708;28;20041;-47
2022/09/28 03:44:09;;;;;;;19.95;7.53;;;;;;;9.49;65.69;99606.72;5160176;28;20060;-48
2022/09/28 03:46:41;;;;;;;12.50;7.78;;;;;;;9.50;65.77;99592.53;5158465;28;20041;-47
2022/09/28 03:49:15;;;;;;;22.77;8.20;;;;;;;9.52;65.65;99600.28;5159253;28;20615;-46
2022/09/28 03:51:48;;;;;;;14.90;8.05;;;;;;;9.53;65.67;99594.81;5157594;28;20069;-47
2022/09/28 03:54:20;;;;;;;15.10;8.48;;;;;;;9.56;65.79;99589.19;5159024;28;20049;-47
2022/09/28 03:56:53;;;;;;;27.20;9.82;;;;;;;9.60;65.55;99594.94;5158488;28;20452;-47
2022/09/28 03:59:25;;;;;;;23.65;9.85;;;;;;;9.63;65.70;99603.34;5159193;28;20049;-51
2022/09/28 04:01:57;;;;;;;28.27;9.82;;;;;;;9.65;65.59;99603.97;5158254;28;20045;-48
2022/09/28 04:04:31;;;;;;;26.60;9.50;;;;;;;9.64;65.70;99597.06;5158494;28;20063;-47
2022/09/28 04:07:04;;;;;;;33.20;11.50;;;;;;;9.73;65.79;99607.56;5159336;28;20052;-48
2022/09/28 04:09:36;;;;;;;30.27;12.25;;;;;;;9.76;65.62;99609.88;5155873;28;20633;-47
2022/09/28 04:12:08;;;;;;;21.10;10.17;;;;;;;9.79;65.80;99615.59;5160846;28;20052;-46
2022/09/28 04:14:40;;;;;;;28.57;12.77;;;;;;;9.82;65.75;99615.25;5160007;28;20637;-48
2022/09/28 04:17:13;;;;;;;24.63;12.52;;;;;;;9.84;65.73;99618.50;5160250;28;20306;-46
2022/09/28 04:19:46;;;;;;;31.13;11.70;;;;;;;9.85;65.55;99609.63;5157962;28;20414;-46
2022/09/28 04:22:19;;;;;;;26.98;11.20;;;;;;;9.84;65.53;99615.88;5157592;28;20295;-47
2022/09/28 04:24:51;;;;;;;27.67;11.43;;;;;;;9.84;65.40;99615.88;5156795;28;20171;-49
2022/09/28 04:30:28;;;;;;;24.65;12.05;;;;;;;9.83;65.75;99605.53;5089614;28;20043;-47
2022/09/28 04:33:01;;;;;;;25.50;11.43;;;;;;;9.84;65.61;99607.16;5085976;28;20464;-49
2022/09/28 04:35:35;;;;;;;23.60;10.32;;;;;;;9.84;65.68;99604.50;5122005;28;20079;-51
2022/09/28 04:38:08;;;;;;;22.40;10.13;;;;;;;9.82;65.68;99603.88;5160015;28;20045;-47
2022/09/28 04:40:40;;;;;;;39.93;11.57;;;;;;;9.81;65.58;99602.22;5160836;28;20045;-48
2022/09/28 04:43:12;;;;;;;30.30;11.57;;;;;;;9.79;65.56;99602.41;5157818;28;20801;-49
2022/09/28 04:45:44;;;;;;;28.45;10.30;;;;;;;9.77;65.66;99600.94;5159480;28;20050;-49
2022/09/28 04:48:17;;;;;;;18.88;8.77;;;;;;;9.73;65.71;99599.66;5158027;28;20454;-46
2022/09/28 04:50:55;;;;;;;22.55;8.10;;;;;;;9.68;65.81;99603.63;5157077;28;20512;-50
2022/09/28 04:53:31;;;;;;;18.38;8.43;;;;;;;9.66;65.71;99600.38;5158097;28;20045;-47
2022/09/28 04:56:07;;;;;;;20.17;7.90;;;;;;;9.63;65.65;99603.34;5170231;28;20068;-51
2022/09/28 04:58:41;;;;;;;18.70;7.43;;;;;;;9.59;65.66;99598.56;5166015;28;20605;-49
2022/09/28 05:01:15;;;;;;;17.58;7.75;;;;;;;9.56;65.73;99607.66;5167833;28;20067;-51
2022/09/28 05:03:47;;;;;;;15.25;7.25;;;;;;;9.52;65.90;99606.38;5175425;28;20049;-48
2022/09/28 05:06:21;;;;;;;12.07;6.70;;;;;;;9.50;65.63;99624.16;5175830;28;20446;-49
2022/09/28 05:08:56;;;;;;;12.20;6.13;;;;;;;9.46;65.81;99625.50;5175517;28;20134;-49
2022/09/28 05:11:28;;;;;;;16.00;6.07;;;;;;;9.43;65.81;99625.84;5175103;28;20145;-48
2022/09/28 05:14:00;;;;;;;14.77;6.67;;;;;;;9.41;65.91;99627.81;5175005;28;20384;-46
2022/09/28 05:16:33;;;;;;;20.75;6.93;;;;;;;9.38;65.98;99626.38;5175809;28;20072;-50
2022/09/28 05:19:06;;;;;;;;;;;;;;;9.37;65.83;99626.53;5169719;28;20097;-47
2022/09/28 05:21:40;;;;;;;10.35;6.68;;;;;;;9.25;65.85;99615.53;5175384;28;20392;-52
2022/09/28 05:24:12;;;;;;;10.32;6.53;;;;;;;9.33;65.85;99636.59;5175814;28;20049;-48
2022/09/28 05:26:44;;;;;;;12.82;6.68;;;;;;;9.28;65.87;99627.56;5174702;28;20186;-46
2022/09/28 05:29:17;;;;;;;20.73;7.45;;;;;;;9.29;66.05;99637.09;5175415;28;20442;-46
2022/09/28 05:31:49;;;;;;;26.08;8.18;;;;;;;9.26;66.00;99634.78;5174274;28;20045;-47
2022/09/28 05:34:21;;;;;;;24.52;9.57;;;;;;;9.25;65.94;99626.09;5175704;28;20049;-48
2022/09/28 05:36:55;;;;;;;25.90;13.60;;;;;;;9.23;65.99;99628.09;5177430;28;20458;-47
2022/09/28 05:39:27;;;;;;;30.33;14.52;;;;;;;9.22;66.08;99624.59;5174752;28;20129;-50
2022/09/28 05:41:59;;;;;;;23.90;12.05;;;;;;;9.19;66.01;99622.31;5175487;28;20381;-45
2022/09/28 05:44:32;;;;;;;20.65;11.55;;;;;;;9.24;66.05;99627.91;5167576;28;20068;-47
2022/09/28 05:47:04;;;;;;;23.50;11.40;;;;;;;9.26;66.09;99625.09;5175776;28;20047;-48
2022/09/28 05:49:36;;;;;;;20.15;9.75;;;;;;;9.27;66.02;99625.91;5172472;28;20037;-49
2022/09/28 05:52:10;;;;;;;27.52;11.02;;;;;;;9.30;66.11;99630.84;5174145;28;20235;-46
2022/09/28 05:54:42;;;;;;;22.17;10.07;;;;;;;9.31;65.96;99625.41;5172994;28;20253;-46
2022/09/28 05:57:15;;;;;;;23.27;9.80;;;;;;;9.35;66.09;99624.09;5171451;28;20334;-46
2022/09/28 05:59:47;;;;;;;28.10;9.43;;;;;;;9.37;66.11;99621.25;5173271;28;20041;-46
2022/09/28 06:02:20;;;;;;;19.17;8.15;;;;;;;9.39;66.06;99624.56;5174336;28;20542;-46
2022/09/28 06:04:52;;;;;;;19.75;9.95;;;;;;;9.42;65.91;99613.66;5175251;28;20061;-49
2022/09/28 06:07:26;;;;;;;24.13;11.48;;;;;;;9.45;66.08;99626.50;5173270;28;22792;-50
2022/09/28 06:09:58;;;;;;;27.17;10.40;;;;;;;9.48;66.04;99620.88;5172157;28;20442;-47
2022/09/28 06:37:24;;;;;;;28.90;15.55;;;;;;;10.70;65.37;99634.19;5147416;28;20525;-50
2022/09/28 06:39:57;;;;;;;30.50;14.80;;;;;;;10.81;65.39;99639.06;5152404;28;20448;-47
2022/09/28 06:42:29;;;;;;;36.38;15.48;;;;;;;10.89;65.38;99644.22;5154724;28;20375;-47
2022/09/28 06:45:01;;;;;;;35.67;17.23;;;;;;;10.98;65.30;99648.44;5146830;28;20049;-50
2022/09/28 06:47:34;;;;;;;41.15;15.73;;;;;;;11.06;65.59;99645.72;5144199;28;20524;-47
2022/09/28 06:50:11;;;;;;;29.52;13.43;;;;;;;11.23;65.73;99627.00;5142553;28;20494;-47
2022/09/28 06:52:44;;;;;;;15.55;8.25;;;;;;;13.71;65.00;99659.66;5138942;28;20049;-50
2022/09/28 06:55:16;;;;;;;9.10;5.22;;;;;;;17.15;60.61;99652.59;5146139;28;20140;-51
2022/09/28 06:57:58;;;;;;;9.25;3.15;;;;;;;20.71;55.65;99664.44;5155545;28;20471;-49
2022/09/28 07:00:35;;;;;;;6.00;3.17;;;;;;;23.70;51.43;99651.69;5155743;28;20045;-51
2022/09/28 07:03:11;;;;;;;4.55;1.65;;;;;;;26.13;47.99;99658.00;5152530;28;20073;-52
2022/09/28 07:05:46;;;;;;;6.60;2.72;;;;;;;27.06;47.12;99656.91;5155425;28;20480;-52
2022/09/28 07:08:27;;;;;;;4.35;2.05;;;;;;;28.20;46.38;99652.47;5149534;28;20366;-50
2022/09/28 07:11:00;;;;;;;3.88;2.10;;;;;;;29.59;45.09;99648.06;5153901;28;20446;-51
2022/09/28 07:13:32;;;;;;;5.00;2.03;;;;;;;30.90;43.84;99644.41;5154705;28;20119;-50
2022/09/28 07:16:05;;;;;;;4.07;1.27;;;;;;;32.03;42.61;99650.94;5154493;28;20385;-52
2022/09/28 07:18:37;;;;;;;2.15;1.30;;;;;;;33.01;41.22;99651.22;5155276;28;20037;-54
2022/09/28 07:21:24;;;;;;;2.97;1.10;;;;;;;34.00;39.37;99666.41;5155268;28;20450;-53
2022/09/28 07:23:58;;;;;;;3.25;1.25;;;;;;;34.77;38.10;99661.34;5152343;28;20464;-53
2022/09/28 07:26:32;;;;;;;4.15;1.27;;;;;;;35.48;36.33;99662.84;5156487;28;20042;-51
2022/09/28 07:29:04;;;;;;;2.30;0.85;;;;;;;36.12;34.78;99661.25;5155276;28;20050;-54
2022/09/28 07:31:36;;;;;;;3.33;1.15;;;;;;;36.72;33.68;99655.78;5149488;28;20050;-53
2022/09/28 07:34:09;;;;;;;4.28;1.33;;;;;;;37.27;32.06;99665.81;5152857;28;20469;-53
2022/09/28 07:36:41;;;;;;;0.40;0.40;;;;;;;37.76;30.72;99661.78;5151419;28;20069;-52
2022/09/28 07:39:15;;;;;;;2.50;0.70;;;;;;;38.19;29.39;99665.44;5136851;28;20472;-53
2022/09/28 07:41:46;;;;;;;1.60;0.50;;;;;;;38.60;28.48;99668.59;5148211;28;20047;-53
2022/09/28 07:44:18;;;;;;;0.88;0.55;;;;;;;38.93;27.93;99674.31;5154924;28;20699;-54
2022/09/28 07:46:50;;;;;;;1.92;0.60;;;;;;;39.23;26.99;99670.03;5152589;28;20187;-50
2022/09/28 07:49:23;;;;;;;;;;;;;;;39.51;26.75;99675.19;5154721;28;20482;-56
2022/09/28 07:51:55;;;;;;;2.70;0.55;;;;;;;39.77;25.82;99677.94;5153433;28;22432;-53
2022/09/28 07:54:29;;;;;;;;;;;;;;;39.73;25.72;99638.41;5149222;28;20049;-52
2022/09/28 07:57:01;;;;;;;1.83;0.70;;;;;;;40.23;25.01;99688.81;5152577;28;19929;-52
2022/09/28 07:59:33;;;;;;;0.82;0.68;;;;;;;40.44;24.16;99679.13;5156068;28;20430;-54
2022/09/28 08:02:05;;;;;;;;;;;;;;;40.62;24.28;99682.88;5137250;28;20073;-52
2022/09/28 08:04:39;;;;;;;5.60;0.85;;;;;;;40.73;23.53;99681.03;5148838;28;19929;-49
2022/09/28 08:07:13;;;;;;;3.90;0.30;;;;;;;40.85;23.51;99681.91;5154190;28;20462;-52
2022/09/28 08:09:47;;;;;;;1.50;0.55;;;;;;;40.83;22.82;99673.97;5152865;28;20387;-53
2022/09/28 08:12:19;;;;;;;5.03;0.75;;;;;;;40.92;22.48;99682.75;5154445;28;20209;-53
2022/09/28 08:14:52;;;;;;;0.38;0.20;;;;;;;40.94;22.42;99679.59;5147110;28;20508;-52
2022/09/28 08:17:24;;;;;;;0.30;0.30;;;;;;;40.96;21.81;99671.72;5151411;28;20354;-52
2022/09/28 08:22:46;;;;;;;2.25;0.60;;;;;;;40.97;21.89;99678.81;5152747;28;20357;-55
2022/09/28 08:25:20;;;;;;;0.90;0.60;;;;;;;40.97;21.62;99687.13;5154335;28;20041;-54
2022/09/28 08:27:54;;;;;;;2.42;0.88;;;;;;;40.93;21.14;99675.25;5153274;28;20398;-52
2022/09/28 08:30:27;;;;;;;3.60;1.02;;;;;;;40.91;21.07;99683.91;5155084;28;20813;-52
2022/09/28 08:32:59;;;;;;;2.35;0.80;;;;;;;40.81;20.84;99687.41;5154812;28;20373;-50
2022/09/28 08:35:32;;;;;;;4.93;0.93;;;;;;;40.66;20.73;99688.44;5141559;28;20045;-54
2022/09/28 08:38:04;;;;;;;2.92;1.67;;;;;;;40.47;20.79;99700.50;5138313;28;20041;-50
2022/09/28 08:40:49;;;;;;;1.25;0.50;;;;;;;40.25;20.81;99699.47;5136822;28;20041;-51
2022/09/28 08:43:50;;;;;;;1.42;0.90;;;;;;;39.97;20.99;99699.91;5137508;28;20386;-52
2022/09/28 08:46:26;;;;;;;3.03;0.50;;;;;;;39.59;20.93;99701.75;5143559;28;20049;-50
2022/09/28 08:49:05;;;;;;;5.28;0.80;;;;;;;39.25;21.24;99709.91;5139949;28;20049;-48
2022/09/28 08:51:43;;;;;;;2.47;0.60;;;;;;;38.83;21.69;99709.97;5135785;28;20140;-51
2022/09/28 08:54:33;;;;;;;4.25;0.70;;;;;;;38.32;21.88;99713.75;5139571;28;20375;-51
2022/09/28 08:57:13;;;;;;;2.10;0.77;;;;;;;37.76;22.41;99714.16;5139370;28;20058;-50
2022/09/28 08:59:53;;;;;;;1.52;0.88;;;;;;;37.07;22.86;99714.50;5139126;28;20053;-47
2022/09/28 09:02:32;;;;;;;0.98;0.40;;;;;;;36.41;23.20;99723.31;5137147;28;23928;-51
2022/09/28 09:05:07;;;;;;;1.58;0.30;;;;;;;35.67;23.16;99707.00;5137891;28;20046;-50
2022/09/28 09:07:59;;;;;;;2.50;0.30;;;;;;;35.03;23.78;99727.72;5136144;28;20049;-51
2022/09/28 09:10:52;;;;;;;2.00;0.60;;;;;;;34.25;24.36;99709.25;5137406;28;20049;-47
2022/09/28 09:13:50;;;;;;;0.93;0.40;;;;;;;33.23;25.15;99702.13;5137728;28;20369;-50
2022/09/28 09:16:36;;;;;;;1.38;0.47;;;;;;;32.60;25.76;99724.50;5142505;28;20081;-47
2022/09/28 09:19:16;;;;;;;2.70;0.50;;;;;;;31.83;26.30;99712.41;5136943;28;20382;-48
2022/09/28 09:21:55;;;;;;;1.05;0.50;;;;;;;31.00;27.00;99709.53;5137925;28;20449;-46
2022/09/28 09:24:33;;;;;;;1.77;0.60;;;;;;;30.28;27.33;99726.84;5135925;28;20501;-46
2022/09/28 09:27:23;;;;;;;1.08;0.32;;;;;;;29.44;27.96;99727.25;5136656;28;20050;-39
2022/09/28 09:30:05;;;;;;;2.22;0.40;;;;;;;28.41;28.63;99723.59;5138480;28;20080;-47
2022/09/28 09:32:56;;;;;;;1.70;1.60;;;;;;;27.44;29.48;99713.19;5135824;28;20052;-47
2022/09/28 09:36:01;;;;;;;0.80;0.40;;;;;;;26.61;30.21;99715.88;5137440;28;20052;-49
2022/09/28 09:38:49;;;;;;;0.85;0.43;;;;;;;25.80;30.95;99729.84;5137130;28;20125;-52
2022/09/28 09:41:34;;;;;;;8.02;3.83;;;;;;;25.28;31.48;99723.84;5135931;28;20137;-48
2022/09/28 09:44:35;;;;;;;2.80;2.40;;;;;;;24.95;31.78;99730.63;5135352;28;20439;-51
2022/09/28 09:47:12;;;;;;;2.97;1.30;;;;;;;24.60;32.65;99724.97;5135395;28;20571;-51
2022/09/28 09:49:50;;;;;;;1.85;1.20;;;;;;;24.16;32.89;99722.72;5136030;28;20050;-49
2022/09/28 09:52:27;;;;;;;3.92;1.33;;;;;;;23.72;33.49;99725.00;5137610;28;20049;-47
2022/09/28 09:55:04;;;;;;;1.15;0.50;;;;;;;23.30;33.93;99735.84;5137256;28;20089;-40
2022/09/28 09:57:44;;;;;;;4.18;2.65;;;;;;;22.87;34.22;99735.78;5138739;28;20038;-51
2022/09/28 10:00:18;;;;;;;1.95;1.75;;;;;;;22.48;34.55;99729.78;5142826;28;20042;-44
2022/09/28 10:02:53;;;;;;;0.88;0.77;;;;;;;22.09;34.74;99733.44;5141450;28;20054;-48
2022/09/28 10:05:30;;;;;;;2.47;1.50;;;;;;;21.73;35.03;99726.03;5140558;28;20447;-51
2022/09/28 10:08:11;;;;;;;2.38;1.00;;;;;;;21.29;35.33;99715.22;5139978;28;20045;-47
2022/09/28 10:10:51;;;;;;;2.47;1.38;;;;;;;21.15;35.77;99739.75;5139667;28;20518;-52
2022/09/28 10:13:23;;;;;;;4.10;1.77;;;;;;;20.82;36.45;99740.56;5146803;28;20144;-49
2022/09/28 10:15:56;;;;;;;2.30;1.15;;;;;;;20.47;36.78;99743.41;5157402;28;20363;-47
2022/09/28 10:18:29;;;;;;;3.70;1.30;;;;;;;20.14;37.17;99736.94;5155471;28;20517;-49
2022/09/28 10:21:02;;;;;;;2.55;1.33;;;;;;;19.84;37.59;99745.19;5158018;28;20148;-48
2022/09/28 10:23:37;;;;;;;3.55;1.30;;;;;;;19.58;37.78;99735.78;5158276;28;20037;-48
2022/09/28 10:26:15;;;;;;;2.70;1.05;;;;;;;19.39;38.08;99739.63;5155799;28;20521;-47
2022/09/28 10:28:53;;;;;;;3.92;1.02;;;;;;;19.09;38.19;99720.00;5157885;28;20046;-46
2022/09/28 10:31:38;;;;;;;3.10;1.05;;;;;;;19.06;38.39;99733.03;5160675;28;20045;-49
2022/09/28 10:34:16;;;;;;;2.25;1.02;;;;;;;18.96;38.52;99736.28;5155629;28;20037;-50
2022/09/28 10:36:56;;;;;;;9.48;1.42;;;;;;;18.84;38.61;99752.31;5156445;28;20057;-51
2022/09/28 10:39:35;;;;;;;7.55;1.23;;;;;;;18.84;38.87;99740.81;5156200;28;20581;-47
2022/09/28 10:42:11;;;;;;;8.00;1.15;;;;;;;18.94;38.89;99751.75;5154840;28;20068;-51
2022/09/28 10:44:55;;;;;;;1.95;1.27;;;;;;;18.96;39.18;99748.88;5158598;28;20056;-49
2022/09/28 10:47:31;;;;;;;3.85;1.10;;;;;;;18.90;39.24;99745.25;5153121;28;20084;-49
2022/09/28 10:50:21;;;;;;;0.85;0.68;;;;;;;18.82;39.58;99754.41;5155402;28;20048;-50
2022/09/28 10:52:53;;;;;;;3.70;1.38;;;;;;;18.53;39.57;99723.16;5157417;28;20446;-52
2022/09/28 10:55:30;;;;;;;2.50;0.95;;;;;;;18.74;39.64;99753.94;5153989;28;20641;-51
2022/09/28 10:58:26;;;;;;;0.82;0.77;;;;;;;18.73;39.83;99750.44;5156152;28;20442;-47
2022/09/28 11:01:02;;;;;;;3.08;0.75;;;;;;;18.63;39.82;99734.13;5155585;28;20138;-51
2022/09/28 11:03:40;;;;;;;5.10;1.00;;;;;;;18.76;40.07;99733.94;5158133;28;20118;-49
2022/09/28 11:06:14;;;;;;;1.30;0.77;;;;;;;18.94;40.20;99745.59;5150391;28;20042;-47
2022/09/28 11:08:50;;;;;;;4.05;1.13;;;;;;;19.10;40.06;99739.53;5149414;28;20065;-52
2022/09/28 11:11:23;;;;;;;5.15;1.50;;;;;;;19.18;40.22;99735.72;5156058;28;20363;-48
2022/09/28 11:13:59;;;;;;;;;;;;;;;19.27;40.14;99745.03;5157866;28;20053;-50
2022/09/28 11:16:34;;;;;;;3.30;0.95;;;;;;;19.21;40.31;99720.00;5158136;28;19976;-52
2022/09/28 11:19:28;;;;;;;4.97;0.90;;;;;;;19.67;40.33;99739.78;5154095;28;20541;-51
2022/09/28 11:22:02;;;;;;;6.25;0.98;;;;;;;19.69;40.82;99736.84;5156399;28;20050;-47
2022/09/28 11:24:35;;;;;;;1.98;0.80;;;;;;;19.55;41.37;99757.69;5156255;28;20140;-48
2022/09/28 11:27:21;;;;;;;0.95;0.75;;;;;;;19.31;41.46;99747.00;5153485;28;20048;-48
2022/09/28 11:29:57;;;;;;;1.30;0.70;;;;;;;19.33;41.54;99766.31;5155935;28;20378;-47
2022/09/28 11:32:44;;;;;;;0.90;0.70;;;;;;;19.29;41.33;99759.81;5153689;28;20083;-47
2022/09/28 11:35:20;;;;;;;0.68;0.68;;;;;;;19.26;41.67;99760.28;5156384;28;20462;-51
2022/09/28 11:38:05;;;;;;;4.18;1.15;;;;;;;18.97;42.40;99755.84;5162594;28;20443;-48
2022/09/28 11:40:51;;;;;;;0.60;0.60;;;;;;;18.50;42.99;99753.03;5175067;28;20067;-50
2022/09/28 11:43:43;;;;;;;1.05;0.65;;;;;;;18.13;43.76;99753.13;5164883;28;20446;-49
2022/09/28 11:46:25;;;;;;;2.72;0.95;;;;;;;17.82;44.03;99759.47;5173792;28;20041;-47
2022/09/28 11:49:04;;;;;;;1.60;0.77;;;;;;;17.69;44.20;99755.91;5177170;28;20041;-47
2022/09/28 11:51:42;;;;;;;0.90;0.55;;;;;;;17.56;44.33;99757.88;5174194;28;20449;-47
2022/09/28 11:54:25;;;;;;;1.95;0.63;;;;;;;17.40;45.22;99768.09;5177774;28;20517;-49
2022/09/28 11:57:01;;;;;;;1.75;1.60;;;;;;;17.15;45.39;99765.47;5177432;28;20538;-50
2022/09/28 11:59:38;;;;;;;12.13;3.25;;;;;;;17.02;45.90;99776.25;5177087;28;20385;-47
2022/09/28 12:02:20;;;;;;;3.40;1.13;;;;;;;16.88;46.73;99786.22;5174565;28;20432;-50
2022/09/28 12:04:56;;;;;;;8.90;1.85;;;;;;;16.75;46.46;99780.94;5165553;28;20087;-47
2022/09/28 12:07:32;;;;;;;7.57;1.75;;;;;;;16.70;46.63;99781.59;5159938;28;20381;-47
2022/09/28 12:10:20;;;;;;;3.03;1.65;;;;;;;16.41;47.13;99756.34;5157042;28;20060;-46
2022/09/28 12:12:57;;;;;;;6.43;2.10;;;;;;;16.63;47.18;99779.97;5156980;28;20373;-47
2022/09/28 12:15:45;;;;;;;2.10;1.10;;;;;;;16.45;48.47;99770.88;5162483;28;20384;-50
2022/09/28 12:18:24;;;;;;;2.78;1.52;;;;;;;16.33;48.16;99775.25;5169851;28;20037;-46
2022/09/28 12:21:15;;;;;;;2.42;1.45;;;;;;;16.28;48.29;99767.06;5171836;28;20377;-49
2022/09/28 12:23:50;;;;;;;2.70;1.20;;;;;;;16.30;48.30;99773.03;5173116;28;20040;-45
2022/09/28 12:26:32;;;;;;;2.13;1.40;;;;;;;16.23;48.68;99769.53;5163319;28;20102;-48
2022/09/28 12:29:12;;;;;;;2.20;1.50;;;;;;;16.16;48.55;99768.78;5157434;28;20071;-49
2022/09/28 12:31:59;;;;;;;1.80;1.10;;;;;;;16.10;48.61;99768.63;5160000;28;20339;-44
2022/09/28 12:34:32;;;;;;;1.95;1.13;;;;;;;16.07;48.43;99763.72;5162647;28;20041;-49
2022/09/28 12:37:42;;;;;;;4.10;1.23;;;;;;;16.05;49.02;99759.63;5167698;28;20380;-47
2022/09/28 12:40:37;;;;;;;4.95;2.58;;;;;;;15.96;48.89;99760.88;5114256;28;20306;-52
2022/09/28 12:43:48;;;;;;;1.63;1.33;;;;;;;15.93;49.09;99764.78;5112673;28;20474;-49
2022/09/28 12:46:34;;;;;;;6.05;2.58;;;;;;;15.91;48.95;99761.50;5111873;28;20443;-52
2022/09/28 12:49:29;;;;;;;2.80;1.90;;;;;;;15.98;48.94;99759.66;5110687;28;20503;-46
2022/09/28 12:52:16;;;;;;;4.30;1.50;;;;;;;16.04;48.75;99764.13;5121655;28;20341;-49